Terminal Aerodrome Forecast
Issued by NWS Los Angeles, CA

Home | Current Version | Previous Version | Text Only | Print | Product List | Glossary On
Versions: 1 2 3 4 5 6 7 8 9 10 11 12 13
000
FTUS46 KLOX 251700
TAFSMX
TAF
KSMX 251726Z 2518/2618 00000KT P6SM SKC
     FM252100 30008KT P6SM SKC
     FM260400 VRB03KT P6SM SKC
     FM261100 VRB03KT P6SM BKN250=

USA.gov is the U.S. government's official web portal to all federal, state and local government web resources and services.